Time;durP1;ratioP1;P1;durP2;ratioP2;P2;SDS_P1;SDS_P2;PMS_P1;PMS_P2;Temp;Humidity;BMP_temperature;BMP_pressure;BME280_temperature;BME280_humidity;BME280_pressure;Samples;Min_cycle;Max_cycle;Signal;HPM_P1;HPM_P2
2022/11/09 00:01:40;;;;;;;28.77;20.05;;;23.90;54.50;;;;;;5048421;28;20037;-62
2022/11/09 00:04:07;;;;;;;27.55;19.00;;;23.90;54.50;;;;;;5048257;28;20087;-63
2022/11/09 00:06:34;;;;;;;29.88;18.70;;;23.90;54.60;;;;;;5048601;28;20025;-62
2022/11/09 00:09:01;;;;;;;26.50;18.63;;;23.80;54.70;;;;;;5049268;28;20104;-63
2022/11/09 00:11:27;;;;;;;28.63;18.88;;;23.70;54.70;;;;;;5058517;28;20116;-62
2022/11/09 00:13:52;;;;;;;26.58;18.55;;;23.70;54.70;;;;;;5061344;28;20104;-63
2022/11/09 00:16:21;;;;;;;29.23;19.35;;;23.70;54.80;;;;;;5064380;28;20024;-62
2022/11/09 00:18:47;;;;;;;28.55;18.83;;;23.70;54.80;;;;;;5041318;28;20503;-62
2022/11/09 00:21:15;;;;;;;28.95;19.05;;;23.70;54.90;;;;;;5054072;28;20029;-62
2022/11/09 00:23:41;;;;;;;25.17;17.98;;;23.60;54.90;;;;;;5061088;28;20051;-62
2022/11/09 00:26:08;;;;;;;24.77;18.02;;;23.60;54.90;;;;;;5060089;28;20321;-63
2022/11/09 00:28:34;;;;;;;26.17;17.80;;;23.60;55.00;;;;;;5061577;28;20388;-62
2022/11/09 00:31:02;;;;;;;25.80;17.92;;;23.50;54.90;;;;;;5049271;28;20120;-63
2022/11/09 00:33:27;;;;;;;24.17;17.73;;;23.50;55.00;;;;;;5046255;28;20099;-63
2022/11/09 00:35:53;;;;;;;26.17;18.30;;;23.50;55.00;;;;;;5034847;28;20171;-62
2022/11/09 00:38:19;;;;;;;25.17;17.05;;;23.50;55.00;;;;;;5055076;28;20024;-64
2022/11/09 00:40:45;;;;;;;24.17;16.42;;;23.50;55.00;;;;;;5048749;28;20033;-62
2022/11/09 00:43:11;;;;;;;25.00;16.65;;;23.50;55.00;;;;;;5045933;28;20373;-62
2022/11/09 00:45:37;;;;;;;23.27;16.08;;;23.40;55.00;;;;;;5045304;28;20061;-63
2022/11/09 00:48:03;;;;;;;25.00;17.48;;;23.40;55.10;;;;;;5049635;28;20021;-63
2022/11/09 00:50:29;;;;;;;23.85;16.77;;;23.40;55.10;;;;;;5056140;28;20027;-62
2022/11/09 00:52:54;;;;;;;22.33;15.95;;;23.30;55.10;;;;;;5050649;28;20091;-62
2022/11/09 00:55:20;;;;;;;23.38;16.83;;;23.30;55.10;;;;;;5048707;28;20031;-62
2022/11/09 00:57:49;;;;;;;24.00;15.93;;;23.30;55.10;;;;;;5056851;28;20029;-63
2022/11/09 01:00:24;;;;;;;21.25;14.93;;;23.30;55.10;;;;;;5057579;28;20087;-63
2022/11/09 01:02:50;;;;;;;22.90;16.52;;;23.30;55.20;;;;;;5066918;28;20446;-63
2022/11/09 01:05:15;;;;;;;22.77;16.08;;;23.20;55.10;;;;;;5059353;28;20055;-62
2022/11/09 01:07:41;;;;;;;23.48;15.75;;;23.20;55.10;;;;;;5054059;28;20099;-62
2022/11/09 01:10:07;;;;;;;20.95;14.93;;;23.20;55.20;;;;;;5054027;28;20035;-65
2022/11/09 01:12:33;;;;;;;21.80;14.68;;;23.20;55.20;;;;;;5057432;28;20483;-63
2022/11/09 01:14:58;;;;;;;21.35;14.85;;;23.10;55.20;;;;;;5056382;28;20076;-64
2022/11/09 01:17:24;;;;;;;19.92;14.23;;;23.10;55.20;;;;;;5049453;28;20087;-64
2022/11/09 01:19:50;;;;;;;21.27;15.48;;;23.10;55.30;;;;;;5049058;28;20074;-65
2022/11/09 01:22:17;;;;;;;20.38;14.55;;;23.10;55.30;;;;;;5032211;28;20033;-64
2022/11/09 01:24:44;;;;;;;19.75;14.25;;;23.00;55.20;;;;;;5052079;28;20033;-63
2022/11/09 01:27:09;;;;;;;20.35;14.43;;;23.00;55.30;;;;;;5055312;28;20455;-63
2022/11/09 01:29:35;;;;;;;19.65;13.30;;;23.10;55.30;;;;;;5052950;28;20029;-64
2022/11/09 01:32:02;;;;;;;18.80;13.85;;;23.00;55.30;;;;;;5050787;28;20148;-63
2022/11/09 01:34:28;;;;;;;19.15;13.25;;;23.00;55.40;;;;;;5054514;28;20020;-64
2022/11/09 01:36:53;;;;;;;19.00;13.52;;;23.00;55.40;;;;;;5053451;28;20082;-64
2022/11/09 01:39:20;;;;;;;20.75;13.77;;;23.00;55.50;;;;;;5054669;28;20562;-65
2022/11/09 01:41:46;;;;;;;18.95;13.57;;;22.90;55.40;;;;;;5047135;28;20372;-63
2022/11/09 01:44:18;;;;;;;17.30;12.70;;;22.90;55.40;;;;;;5051849;28;20039;-64
2022/11/09 01:46:55;;;;;;;19.35;13.23;;;22.90;55.40;;;;;;5062352;28;20084;-64
2022/11/09 01:49:45;;;;;;;16.95;12.95;;;22.80;55.50;;;;;;5062901;28;20024;-64
2022/11/09 01:52:13;;;;;;;18.35;12.55;;;22.80;55.50;;;;;;5046689;28;20071;-63
2022/11/09 01:54:44;;;;;;;17.70;13.20;;;22.80;55.60;;;;;;5053724;28;20021;-64
2022/11/09 01:57:14;;;;;;;17.50;12.38;;;22.80;55.60;;;;;;5055052;28;20111;-64
2022/11/09 01:59:45;;;;;;;16.48;12.32;;;22.70;55.70;;;;;;5057222;28;20497;-63
2022/11/09 02:02:11;;;;;;;16.67;12.18;;;22.70;55.70;;;;;;5052282;28;20507;-63
2022/11/09 02:04:42;;;;;;;17.73;12.93;;;22.70;55.70;;;;;;5049672;28;20040;-64
2022/11/09 02:07:08;;;;;;;17.42;12.68;;;22.70;55.70;;;;;;5055957;28;20110;-64
2022/11/09 02:09:50;;;;;;;17.98;12.38;;;22.70;56.20;;;;;;5058982;28;20040;-63
2022/11/09 02:12:17;;;;;;;17.77;12.35;;;22.70;55.80;;;;;;5055251;28;20387;-65
2022/11/09 02:14:43;;;;;;;15.93;11.93;;;22.60;55.70;;;;;;5050817;28;20032;-63
2022/11/09 02:17:10;;;;;;;17.95;12.93;;;22.60;55.80;;;;;;5047402;28;20043;-63
2022/11/09 02:19:35;;;;;;;17.08;12.70;;;22.60;55.80;;;;;;5054816;28;20022;-64
2022/11/09 02:22:02;;;;;;;16.55;12.82;;;22.60;55.80;;;;;;5050615;28;20032;-63
2022/11/09 02:24:28;;;;;;;18.05;11.98;;;22.60;55.80;;;;;;5045823;28;20769;-62
2022/11/09 02:26:54;;;;;;;16.63;12.07;;;22.50;55.90;;;;;;5037669;28;20511;-62
2022/11/09 02:29:26;;;;;;;15.90;11.77;;;22.50;55.90;;;;;;5041764;28;20028;-62
2022/11/09 02:31:56;;;;;;;15.95;11.48;;;22.50;55.90;;;;;;5046981;28;20030;-62
2022/11/09 02:34:23;;;;;;;16.00;11.38;;;22.50;55.90;;;;;;5051309;28;20540;-62
2022/11/09 02:36:49;;;;;;;15.68;11.40;;;22.50;56.00;;;;;;5063689;28;20578;-62
2022/11/09 02:39:17;;;;;;;16.83;12.10;;;22.50;56.00;;;;;;5048378;28;20025;-63
2022/11/09 02:41:52;;;;;;;16.77;12.00;;;22.40;56.00;;;;;;5051488;28;20024;-62
2022/11/09 02:44:18;;;;;;;15.15;11.27;;;22.40;56.00;;;;;;5057920;28;20464;-62
2022/11/09 02:46:44;;;;;;;17.88;12.13;;;22.40;56.00;;;;;;5061412;28;20036;-62
2022/11/09 02:49:10;;;;;;;16.10;11.63;;;22.40;56.00;;;;;;5058110;28;20401;-62
2022/11/09 02:51:36;;;;;;;15.10;11.02;;;22.40;56.10;;;;;;5049872;28;20033;-64
2022/11/09 02:54:01;;;;;;;16.15;11.00;;;22.30;56.10;;;;;;5052291;28;20024;-63
2022/11/09 02:56:27;;;;;;;16.65;11.73;;;22.30;56.10;;;;;;5054005;28;20021;-62
2022/11/09 02:58:53;;;;;;;15.45;11.25;;;22.30;56.10;;;;;;5050329;28;20076;-63
2022/11/09 03:01:18;;;;;;;15.88;11.82;;;22.30;56.10;;;;;;5045405;28;20094;-63
2022/11/09 03:03:44;;;;;;;14.30;10.85;;;22.30;56.10;;;;;;5043320;28;20087;-63
2022/11/09 03:06:09;;;;;;;15.13;11.00;;;22.30;56.10;;;;;;5049128;28;20614;-63
2022/11/09 03:08:35;;;;;;;14.63;10.30;;;22.30;56.10;;;;;;5052015;28;20021;-63
2022/11/09 03:11:01;;;;;;;13.85;10.55;;;22.20;56.10;;;;;;5054296;28;20115;-62
2022/11/09 03:13:27;;;;;;;14.30;10.38;;;22.20;56.10;;;;;;5050962;28;20044;-63
2022/11/09 03:15:53;;;;;;;13.20;9.95;;;22.30;56.10;;;;;;5048767;28;20029;-63
2022/11/09 03:18:18;;;;;;;14.38;10.75;;;22.20;56.10;;;;;;5049981;28;20099;-63
2022/11/09 03:20:44;;;;;;;15.18;10.88;;;22.20;56.10;;;;;;5050263;28;20472;-62
2022/11/09 03:23:10;;;;;;;13.80;10.57;;;22.20;56.10;;;;;;5058288;28;20017;-63
2022/11/09 03:25:36;;;;;;;13.88;10.52;;;22.20;56.10;;;;;;5048078;28;20037;-63
2022/11/09 03:28:05;;;;;;;14.35;9.68;;;22.20;56.20;;;;;;5060961;28;20025;-62
2022/11/09 03:30:32;;;;;;;15.45;10.95;;;22.20;56.20;;;;;;5059978;28;20449;-63
2022/11/09 03:33:08;;;;;;;14.30;10.07;;;22.20;56.20;;;;;;5063536;28;20025;-62
2022/11/09 03:35:37;;;;;;;14.35;10.68;;;22.10;56.10;;;;;;5057338;28;20055;-62
2022/11/09 03:38:03;;;;;;;14.02;9.57;;;22.10;56.20;;;;;;5051199;28;20123;-62
2022/11/09 03:40:30;;;;;;;12.43;9.63;;;22.10;56.20;;;;;;5054123;28;20051;-62
2022/11/09 03:42:55;;;;;;;14.15;10.30;;;22.10;56.20;;;;;;5057634;28;20147;-63
2022/11/09 03:45:21;;;;;;;13.90;9.57;;;22.10;56.30;;;;;;5059789;28;20137;-62
2022/11/09 03:47:47;;;;;;;12.45;9.35;;;22.10;56.20;;;;;;5060482;28;20388;-62
2022/11/09 03:50:14;;;;;;;13.45;9.98;;;22.10;56.20;;;;;;5053007;28;20417;-63
2022/11/09 03:52:44;;;;;;;13.27;9.80;;;22.10;56.20;;;;;;5054071;28;20021;-62
2022/11/09 03:55:10;;;;;;;11.70;8.80;;;22.10;56.30;;;;;;5054838;28;20048;-63
2022/11/09 03:57:35;;;;;;;13.10;9.43;;;22.10;56.30;;;;;;5055593;28;20480;-63
2022/11/09 04:00:01;;;;;;;12.57;9.35;;;22.00;56.20;;;;;;5057845;28;20503;-62
2022/11/09 04:02:27;;;;;;;11.45;8.40;;;22.00;56.20;;;;;;5054486;28;20040;-63
2022/11/09 04:04:52;;;;;;;12.00;9.13;;;22.00;56.30;;;;;;5055117;28;20104;-63
2022/11/09 04:07:18;;;;;;;11.60;8.80;;;22.00;56.30;;;;;;5055674;28;20033;-63
2022/11/09 04:09:43;;;;;;;12.30;8.88;;;22.00;56.30;;;;;;5044928;28;20095;-63
2022/11/09 04:12:09;;;;;;;12.90;8.95;;;22.00;56.30;;;;;;5039785;28;20030;-63
2022/11/09 04:14:35;;;;;;;10.93;8.75;;;22.00;56.30;;;;;;5053786;28;20419;-62
2022/11/09 04:17:00;;;;;;;12.35;9.25;;;22.00;56.30;;;;;;5060793;28;20029;-63
2022/11/09 04:19:26;;;;;;;11.55;8.68;;;22.00;56.30;;;;;;5063847;28;20036;-63
2022/11/09 04:21:51;;;;;;;10.90;8.00;;;22.00;56.30;;;;;;5066194;28;20379;-63
2022/11/09 04:24:17;;;;;;;11.05;8.10;;;21.90;56.20;;;;;;5046586;28;20037;-63
2022/11/09 04:26:42;;;;;;;11.35;8.20;;;21.90;56.30;;;;;;5054645;28;20492;-62
2022/11/09 04:29:09;;;;;;;11.10;8.32;;;21.90;56.30;;;;;;5058408;28;20051;-62
2022/11/09 04:31:35;;;;;;;10.95;7.90;;;21.90;56.30;;;;;;5058155;28;20113;-62
2022/11/09 04:34:00;;;;;;;9.68;7.82;;;21.90;56.20;;;;;;5059274;28;20021;-64
2022/11/09 04:36:26;;;;;;;9.82;7.30;;;21.90;56.30;;;;;;5051993;28;20032;-63
2022/11/09 04:38:52;;;;;;;10.25;7.18;;;21.90;56.30;;;;;;5056753;28;20461;-63
2022/11/09 04:41:17;;;;;;;10.52;7.68;;;21.90;56.30;;;;;;5060273;28;20060;-62
2022/11/09 04:43:43;;;;;;;10.07;7.22;;;21.90;56.30;;;;;;5060821;28;20036;-62
2022/11/09 04:46:09;;;;;;;10.75;7.57;;;21.90;56.30;;;;;;5048794;28;20032;-63
2022/11/09 04:48:34;;;;;;;9.95;7.13;;;21.90;56.30;;;;;;5040909;28;20060;-63
2022/11/09 04:51:06;;;;;;;10.25;7.65;;;21.90;56.30;;;;;;5046278;28;20039;-64
2022/11/09 04:53:32;;;;;;;9.60;7.53;;;21.90;56.30;;;;;;5052207;28;20480;-62
2022/11/09 04:55:58;;;;;;;9.65;7.25;;;21.90;56.30;;;;;;5049444;28;20364;-62
2022/11/09 04:58:24;;;;;;;10.80;6.72;;;21.90;56.40;;;;;;5046684;28;20090;-63
2022/11/09 05:00:50;;;;;;;9.30;7.20;;;21.90;56.30;;;;;;5043051;28;20047;-64
2022/11/09 05:03:16;;;;;;;8.90;6.68;;;21.90;56.40;;;;;;5043883;28;20100;-63
2022/11/09 05:05:41;;;;;;;10.02;6.93;;;21.90;56.40;;;;;;5064489;28;20033;-62
2022/11/09 05:08:08;;;;;;;10.02;7.00;;;21.80;56.40;;;;;;5066464;28;20029;-63
2022/11/09 05:10:34;;;;;;;8.95;6.85;;;21.90;56.40;;;;;;5056753;28;20082;-62
2022/11/09 05:13:04;;;;;;;9.73;7.00;;;21.80;56.40;;;;;;5039130;28;20036;-64
2022/11/09 05:15:30;;;;;;;9.93;7.53;;;21.80;57.00;;;;;;5054719;28;20107;-62
2022/11/09 05:17:56;;;;;;;9.05;7.15;;;21.80;56.60;;;;;;5063788;28;20450;-62
2022/11/09 05:20:23;;;;;;;11.27;7.80;;;21.80;56.70;;;;;;5061052;28;20031;-64
2022/11/09 05:25:33;;;;;;;10.18;7.80;;;21.70;56.80;;;;;;5047712;28;20086;-63
2022/11/09 05:27:58;;;;;;;10.25;7.50;;;21.80;56.80;;;;;;5052116;28;20045;-63
2022/11/09 05:30:24;;;;;;;9.73;7.07;;;21.70;56.80;;;;;;5054564;28;20071;-62
2022/11/09 05:32:50;;;;;;;9.80;6.95;;;21.70;56.80;;;;;;5050349;28;20040;-63
2022/11/09 05:35:16;;;;;;;9.05;6.80;;;21.70;57.30;;;;;;5047315;28;20021;-62
2022/11/09 05:37:44;;;;;;;9.27;6.80;;;21.70;56.80;;;;;;5048323;28;20029;-63
2022/11/09 05:40:10;;;;;;;9.25;6.78;;;21.70;56.90;;;;;;5047309;28;20083;-63
2022/11/09 05:42:40;;;;;;;8.82;6.50;;;21.70;56.90;;;;;;5053829;28;20033;-62
2022/11/09 05:45:10;;;;;;;9.20;6.70;;;21.70;56.90;;;;;;5053327;28;20425;-63
2022/11/09 05:47:40;;;;;;;8.85;6.40;;;21.70;57.00;;;;;;5051415;28;20029;-63
2022/11/09 05:50:08;;;;;;;8.88;6.72;;;21.70;57.00;;;;;;5050330;28;20421;-63
2022/11/09 05:52:34;;;;;;;8.77;6.55;;;21.70;57.00;;;;;;5050826;28;20040;-62
2022/11/09 05:54:59;;;;;;;8.48;6.20;;;21.70;57.00;;;;;;5058626;28;20025;-62
2022/11/09 05:57:26;;;;;;;8.90;6.30;;;21.70;57.00;;;;;;5060223;28;20037;-62
2022/11/09 05:59:52;;;;;;;7.85;5.97;;;21.70;57.00;;;;;;5059286;28;20348;-62
2022/11/09 06:02:17;;;;;;;9.00;6.80;;;21.70;57.00;;;;;;5054137;28;20032;-63
2022/11/09 06:04:43;;;;;;;8.20;6.20;;;21.70;57.00;;;;;;5059212;28;20075;-61
2022/11/09 06:07:09;;;;;;;8.55;6.40;;;21.70;57.00;;;;;;5060941;28;20029;-63
2022/11/09 06:09:34;;;;;;;7.70;5.70;;;21.70;57.00;;;;;;5054245;28;20028;-62
2022/11/09 06:12:00;;;;;;;8.48;6.45;;;21.70;57.00;;;;;;5052938;28;20485;-62
2022/11/09 06:14:26;;;;;;;7.55;6.07;;;21.70;57.00;;;;;;5051452;28;20068;-62
2022/11/09 06:16:51;;;;;;;8.73;6.25;;;21.70;57.00;;;;;;5056508;28;20033;-63
2022/11/09 06:19:17;;;;;;;7.80;5.82;;;21.70;57.00;;;;;;5056716;28;20037;-63
2022/11/09 06:21:42;;;;;;;8.50;6.05;;;21.70;57.10;;;;;;5057075;28;20416;-63
2022/11/09 06:24:09;;;;;;;7.90;5.90;;;21.70;57.60;;;;;;5055189;28;20032;-62
2022/11/09 06:26:35;;;;;;;10.00;7.00;;;21.80;57.70;;;;;;5053861;28;20401;-63
2022/11/09 06:29:01;;;;;;;9.35;7.10;;;22.00;57.50;;;;;;5055675;28;20036;-63
2022/11/09 06:31:27;;;;;;;8.88;6.45;;;22.10;57.20;;;;;;5049165;28;20034;-62
2022/11/09 06:33:53;;;;;;;8.90;6.85;;;22.20;56.80;;;;;;5055638;28;20053;-62
2022/11/09 06:36:19;;;;;;;10.07;7.00;;;22.30;56.60;;;;;;5054744;28;20025;-62
2022/11/09 06:38:48;;;;;;;10.05;7.47;;;22.40;56.80;;;;;;5043836;28;20036;-61
2022/11/09 06:41:14;;;;;;;;;;;22.50;56.50;;;;;;5048027;28;20563;-63
2022/11/09 06:43:40;;;;;;;10.40;7.20;;;22.70;56.30;;;;;;5046420;28;19959;-63
2022/11/09 06:46:06;;;;;;;9.75;7.35;;;22.80;55.90;;;;;;5048831;28;20548;-62
2022/11/09 06:48:32;;;;;;;9.07;7.22;;;22.90;55.50;;;;;;5055184;28;20029;-63
2022/11/09 06:51:02;;;;;;;9.70;7.38;;;23.10;55.20;;;;;;5057826;28;20184;-64
2022/11/09 06:53:29;;;;;;;10.48;7.90;;;23.20;55.00;;;;;;5060176;28;20025;-63
2022/11/09 06:55:59;;;;;;;10.25;7.63;;;23.30;54.70;;;;;;5050940;28;20021;-62
2022/11/09 06:58:25;;;;;;;9.75;7.13;;;23.40;54.50;;;;;;5049156;28;20107;-63
2022/11/09 07:00:51;;;;;;;8.52;6.22;;;23.50;54.40;;;;;;5058384;28;20462;-62
2022/11/09 07:03:18;;;;;;;8.30;6.45;;;23.50;54.30;;;;;;5061454;28;20036;-63
2022/11/09 07:05:45;;;;;;;9.30;6.88;;;23.50;54.20;;;;;;5057772;28;20103;-65
2022/11/09 07:08:11;;;;;;;10.15;6.90;;;23.50;54.20;;;;;;5048308;28;20461;-64
2022/11/09 07:10:37;;;;;;;9.93;7.20;;;23.50;54.30;;;;;;5050852;28;20040;-63
2022/11/09 07:13:04;;;;;;;9.50;7.13;;;23.50;54.60;;;;;;5055122;28;20481;-63
2022/11/09 07:15:29;;;;;;;9.18;6.88;;;23.60;54.40;;;;;;5051050;28;20491;-62
2022/11/09 07:17:59;;;;;;;9.35;6.88;;;23.80;54.10;;;;;;5048157;28;20028;-63
2022/11/09 07:20:25;;;;;;;9.10;6.75;;;23.90;53.70;;;;;;5042537;28;20022;-63
2022/11/09 07:22:51;;;;;;;9.30;6.82;;;24.00;53.30;;;;;;5040833;28;20033;-63
2022/11/09 07:25:17;;;;;;;9.27;6.90;;;24.10;53.20;;;;;;5049370;28;20044;-62
2022/11/09 07:27:43;;;;;;;8.73;6.13;;;24.10;53.20;;;;;;5053939;28;20333;-63
2022/11/09 07:30:09;;;;;;;8.82;6.70;;;24.10;53.10;;;;;;5049652;28;20028;-63
2022/11/09 07:32:36;;;;;;;10.23;7.03;;;24.10;53.10;;;;;;5046714;28;20060;-62
2022/11/09 07:35:03;;;;;;;11.15;6.55;;;24.10;53.10;;;;;;5053812;28;20514;-63
2022/11/09 07:37:29;;;;;;;8.52;6.45;;;24.00;53.10;;;;;;5055214;28;20548;-63
2022/11/09 07:39:55;;;;;;;8.95;6.60;;;24.00;53.10;;;;;;5063240;28;20561;-64
2022/11/09 07:42:20;;;;;;;8.60;6.65;;;24.00;53.10;;;;;;5056461;28;20116;-65
2022/11/09 07:44:46;;;;;;;8.10;6.43;;;24.00;53.10;;;;;;5055227;28;20021;-65
2022/11/09 07:47:11;;;;;;;7.95;6.30;;;24.00;53.10;;;;;;5051066;28;20091;-64
2022/11/09 07:49:37;;;;;;;8.93;6.30;;;24.00;53.20;;;;;;5053886;28;20384;-65
2022/11/09 07:52:03;;;;;;;9.05;6.60;;;23.90;53.10;;;;;;5053825;28;20024;-65
2022/11/09 07:54:28;;;;;;;8.23;6.00;;;23.90;53.20;;;;;;5048081;28;20060;-62
2022/11/09 07:56:54;;;;;;;7.95;6.10;;;23.90;53.20;;;;;;5046438;28;20235;-64
2022/11/09 07:59:20;;;;;;;7.43;5.88;;;23.90;53.20;;;;;;5046827;28;20372;-63
2022/11/09 08:01:45;;;;;;;9.15;6.53;;;24.00;53.30;;;;;;5052895;28;20041;-64
2022/11/09 08:04:11;;;;;;;8.85;6.38;;;23.90;53.30;;;;;;5059248;28;20057;-64
2022/11/09 08:06:37;;;;;;;7.63;6.25;;;23.90;53.30;;;;;;5055329;28;20028;-65
2022/11/09 08:09:02;;;;;;;7.70;5.95;;;23.90;53.30;;;;;;5056286;28;20107;-65
2022/11/09 08:11:28;;;;;;;8.18;6.35;;;23.90;53.40;;;;;;5055508;28;20024;-64
2022/11/09 08:13:54;;;;;;;8.77;6.25;;;23.90;53.40;;;;;;5052925;28;20108;-67
2022/11/09 08:16:20;;;;;;;7.95;6.15;;;23.90;53.40;;;;;;5060687;28;20335;-64
2022/11/09 08:18:47;;;;;;;7.55;5.72;;;23.90;53.90;;;;;;5057248;28;20021;-65
2022/11/09 08:21:13;;;;;;;7.85;6.15;;;23.90;53.40;;;;;;5052148;28;20384;-66
2022/11/09 08:23:39;;;;;;;8.13;6.05;;;23.90;53.40;;;;;;5060529;28;20025;-65
2022/11/09 08:26:05;;;;;;;8.50;6.18;;;23.90;53.40;;;;;;5061324;28;20039;-65
2022/11/09 08:28:32;;;;;;;9.18;6.47;;;23.90;53.40;;;;;;5053726;28;20057;-66
2022/11/09 08:31:00;;;;;;;8.35;6.50;;;23.90;53.40;;;;;;5053343;28;20026;-66
2022/11/09 08:33:29;;;;;;;8.38;6.18;;;23.90;53.50;;;;;;5052419;28;20110;-66
2022/11/09 08:35:55;;;;;;;8.10;6.15;;;23.90;53.60;;;;;;5055406;28;20516;-66
2022/11/09 08:38:21;;;;;;;8.23;6.22;;;23.90;53.60;;;;;;5059768;28;20025;-66
2022/11/09 08:40:46;;;;;;;8.90;6.72;;;23.90;53.50;;;;;;5056962;28;20137;-66
2022/11/09 08:43:12;;;;;;;8.38;6.10;;;23.80;53.50;;;;;;5057159;28;20487;-66
2022/11/09 08:45:39;;;;;;;7.70;5.88;;;23.90;53.60;;;;;;5060757;28;20086;-67
2022/11/09 08:48:07;;;;;;;7.93;6.13;;;23.80;53.60;;;;;;5058027;28;20235;-65
2022/11/09 08:50:34;;;;;;;8.43;6.38;;;23.80;53.60;;;;;;5054575;28;20025;-64
2022/11/09 08:53:00;;;;;;;8.30;5.85;;;23.90;53.70;;;;;;5054191;28;20072;-65
2022/11/09 08:55:26;;;;;;;8.57;6.30;;;23.80;54.20;;;;;;5059738;28;20029;-65
2022/11/09 08:57:57;;;;;;;8.30;6.10;;;23.80;53.70;;;;;;5055652;28;20539;-65
2022/11/09 09:00:23;;;;;;;8.38;6.32;;;23.80;53.70;;;;;;5052318;28;20549;-64
2022/11/09 09:02:49;;;;;;;8.65;6.55;;;23.80;53.80;;;;;;5048403;28;20029;-65
2022/11/09 09:05:15;;;;;;;8.07;5.57;;;23.80;53.70;;;;;;5043218;28;20128;-65
2022/11/09 09:07:41;;;;;;;7.80;6.03;;;23.80;53.70;;;;;;5035748;28;20061;-65
2022/11/09 09:10:07;;;;;;;6.65;5.50;;;23.80;53.70;;;;;;5049279;28;20111;-65
2022/11/09 09:12:32;;;;;;;8.48;6.00;;;23.80;53.70;;;;;;5058616;28;20035;-65
2022/11/09 09:14:58;;;;;;;8.52;5.85;;;23.80;53.70;;;;;;5062373;28;20044;-64
2022/11/09 09:17:24;;;;;;;8.75;6.22;;;23.80;53.70;;;;;;5050267;28;20386;-64
2022/11/09 09:19:49;;;;;;;7.63;5.90;;;23.80;53.80;;;;;;5053869;28;20033;-64
2022/11/09 09:22:15;;;;;;;8.30;6.13;;;23.80;53.80;;;;;;5059215;28;20067;-65
2022/11/09 09:24:41;;;;;;;8.10;5.80;;;23.80;53.80;;;;;;5059817;28;20060;-64
2022/11/09 09:27:06;;;;;;;7.57;6.13;;;23.80;53.80;;;;;;5058178;28;20238;-64
2022/11/09 09:29:32;;;;;;;7.40;5.78;;;23.80;53.90;;;;;;5051503;28;20026;-65
2022/11/09 09:31:57;;;;;;;6.97;5.55;;;23.80;53.80;;;;;;5057668;28;20456;-64
2022/11/09 09:34:23;;;;;;;7.47;5.68;;;23.70;53.80;;;;;;5054773;28;20028;-64
2022/11/09 09:36:52;;;;;;;7.63;5.93;;;23.80;53.80;;;;;;5057178;28;20040;-64
2022/11/09 09:39:18;;;;;;;7.13;5.53;;;23.80;53.90;;;;;;5051328;28;20021;-63
2022/11/09 09:41:59;;;;;;;8.18;6.00;;;23.80;53.80;;;;;;5041681;28;20036;-64
2022/11/09 09:44:41;;;;;;;8.07;5.72;;;23.80;53.90;;;;;;5046522;28;20028;-64
2022/11/09 09:48:02;;;;;;;7.90;5.90;;;23.80;54.40;;;;;;5055026;28;20482;-65
2022/11/09 09:50:39;;;;;;;7.35;5.70;;;23.80;53.80;;;;;;4976435;28;20026;-64
2022/11/09 09:53:34;;;;;;;7.68;5.78;;;23.70;53.80;;;;;;5041384;28;20041;-64
2022/11/09 09:56:23;;;;;;;7.50;5.60;;;23.70;53.90;;;;;;5050232;28;20427;-65
2022/11/09 09:59:08;;;;;;;7.95;5.60;;;23.70;53.90;;;;;;5053178;28;20102;-64
2022/11/09 10:01:42;;;;;;;7.20;5.55;;;23.70;53.90;;;;;;5057610;28;20100;-66
2022/11/09 10:04:16;;;;;;;7.60;5.97;;;23.70;53.90;;;;;;5057110;28;20029;-65
2022/11/09 10:06:58;;;;;;;6.78;5.50;;;23.80;54.00;;;;;;5056925;28;20025;-63
2022/11/09 10:09:46;;;;;;;6.80;5.35;;;23.80;54.10;;;;;;5052149;28;20094;-63
2022/11/09 10:12:40;;;;;;;7.97;6.10;;;23.70;54.00;;;;;;5051759;28;20021;-63
2022/11/09 10:15:12;;;;;;;7.50;5.75;;;23.70;54.00;;;;;;5053766;28;20028;-63
2022/11/09 10:18:08;;;;;;;6.82;5.30;;;23.70;54.00;;;;;;5044478;28;20021;-63
2022/11/09 10:20:57;;;;;;;8.20;6.05;;;23.70;54.00;;;;;;5050477;28;20115;-64
2022/11/09 10:23:29;;;;;;;7.50;5.90;;;23.80;54.00;;;;;;5054081;28;20107;-63
2022/11/09 10:26:04;;;;;;;6.63;5.10;;;23.80;54.00;;;;;;5053289;28;20056;-64
2022/11/09 10:28:32;;;;;;;7.63;5.43;;;23.70;54.00;;;;;;5055475;28;20044;-65
2022/11/09 10:31:00;;;;;;;7.75;5.45;;;23.70;54.00;;;;;;5052495;28;20079;-63
2022/11/09 10:33:27;;;;;;;7.43;5.00;;;23.70;54.00;;;;;;5048623;28;20036;-65
2022/11/09 10:36:22;;;;;;;6.47;5.13;;;23.70;54.10;;;;;;5051839;28;20025;-64
2022/11/09 10:38:52;;;;;;;6.72;5.40;;;23.70;54.20;;;;;;5055626;28;20024;-63
2022/11/09 10:41:43;;;;;;;7.35;5.72;;;23.70;54.00;;;;;;5056417;28;20024;-63
2022/11/09 10:44:17;;;;;;;8.85;5.28;;;23.70;54.00;;;;;;5052771;28;20493;-61
2022/11/09 10:47:01;;;;;;;5.82;4.47;;;23.70;54.00;;;;;;5045282;28;20070;-63
2022/11/09 10:49:27;;;;;;;6.85;5.00;;;23.70;53.90;;;;;;5060646;28;20052;-63
2022/11/09 10:51:52;;;;;;;6.88;5.22;;;23.70;54.00;;;;;;5061953;28;20440;-63
2022/11/09 10:54:20;;;;;;;7.45;5.40;;;23.70;54.00;;;;;;5054381;28;20419;-61
2022/11/09 10:57:12;;;;;;;7.20;5.20;;;23.70;54.00;;;;;;5056959;28;20033;-63
2022/11/09 10:59:53;;;;;;;6.85;5.20;;;23.80;54.00;;;;;;5047646;28;20041;-63
2022/11/09 11:02:24;;;;;;;7.40;5.38;;;23.70;54.50;;;;;;5048408;28;20029;-65
2022/11/09 11:05:11;;;;;;;5.60;4.65;;;23.70;54.10;;;;;;5053901;28;20084;-64
2022/11/09 11:07:37;;;;;;;6.93;5.25;;;23.70;54.10;;;;;;5022034;28;20033;-65
2022/11/09 11:10:15;;;;;;;7.20;5.20;;;23.70;54.10;;;;;;5054081;28;20029;-64
2022/11/09 11:12:43;;;;;;;6.45;4.72;;;23.70;54.10;;;;;;5048362;28;20026;-65
2022/11/09 11:15:22;;;;;;;6.15;4.78;;;23.70;54.10;;;;;;5053583;28;20021;-64
2022/11/09 11:17:48;;;;;;;6.55;5.43;;;23.70;54.20;;;;;;5059834;28;20020;-64
2022/11/09 11:20:30;;;;;;;7.38;5.45;;;23.70;54.20;;;;;;5057590;28;20024;-64
2022/11/09 11:23:08;;;;;;;7.18;4.90;;;23.70;54.10;;;;;;5048364;28;20040;-65
2022/11/09 11:25:53;;;;;;;6.68;4.95;;;23.80;54.20;;;;;;5048255;28;20487;-65
2022/11/09 11:28:32;;;;;;;7.70;5.18;;;23.80;54.20;;;;;;5061006;28;20475;-64
2022/11/09 11:30:58;;;;;;;6.60;5.28;;;23.80;54.20;;;;;;5049310;28;20061;-64
2022/11/09 11:33:25;;;;;;;6.45;5.05;;;23.70;54.20;;;;;;5052823;28;20083;-64
2022/11/09 11:35:57;;;;;;;6.20;5.10;;;23.70;54.20;;;;;;5053175;28;20022;-64
2022/11/09 11:38:25;;;;;;;6.75;5.10;;;23.70;54.20;;;;;;5048533;28;20067;-64
2022/11/09 11:41:12;;;;;;;6.60;5.15;;;23.70;54.10;;;;;;5051141;28;20543;-64
2022/11/09 11:44:10;;;;;;;6.85;4.80;;;23.70;54.00;;;;;;5059364;28;20056;-64
2022/11/09 11:46:47;;;;;;;7.68;5.03;;;23.70;54.10;;;;;;5062175;28;20471;-64
2022/11/09 11:49:25;;;;;;;6.28;4.72;;;23.70;54.00;;;;;;5054484;28;20060;-65
2022/11/09 11:52:18;;;;;;;6.60;4.97;;;23.70;54.10;;;;;;5056295;28;20143;-64
2022/11/09 11:55:14;;;;;;;6.70;4.70;;;23.70;54.10;;;;;;5060220;28;20032;-65
2022/11/09 11:58:05;;;;;;;6.50;4.90;;;23.70;54.20;;;;;;5054000;28;20148;-64
2022/11/09 12:00:58;;;;;;;6.43;4.90;;;23.80;54.20;;;;;;5051866;28;20035;-64
2022/11/09 12:03:59;;;;;;;6.72;4.30;;;23.80;54.20;;;;;;5052826;28;20029;-64
2022/11/09 12:06:38;;;;;;;6.35;4.70;;;23.70;54.20;;;;;;4985596;28;20041;-63
2022/11/09 12:09:32;;;;;;;6.80;4.88;;;23.80;54.20;;;;;;5058326;28;20070;-65
2022/11/09 12:12:29;;;;;;;5.15;4.32;;;23.80;54.20;;;;;;5050837;28;20126;-63
2022/11/09 12:15:10;;;;;;;6.00;4.43;;;23.80;54.20;;;;;;5048654;28;20021;-65
2022/11/09 12:17:59;;;;;;;7.28;4.65;;;23.80;54.20;;;;;;5048419;28;20404;-64
2022/11/09 12:20:55;;;;;;;6.03;4.23;;;23.80;54.30;;;;;;5054478;28;20506;-64
2022/11/09 12:23:24;;;;;;;6.75;4.88;;;23.70;54.20;;;;;;5055894;28;20255;-63
2022/11/09 12:26:15;;;;;;;6.85;4.72;;;23.80;54.30;;;;;;5056199;28;20045;-63
2022/11/09 12:28:59;;;;;;;6.78;4.70;;;23.70;54.30;;;;;;5056371;28;20395;-65
2022/11/09 12:31:38;;;;;;;5.80;4.22;;;23.80;54.40;;;;;;5058029;28;20040;-66
2022/11/09 12:34:15;;;;;;;6.35;4.72;;;23.80;54.40;;;;;;5057699;28;20025;-64
2022/11/09 12:36:49;;;;;;;6.20;4.50;;;23.80;54.40;;;;;;5053499;28;20396;-64
2022/11/09 12:39:33;;;;;;;6.05;4.47;;;23.70;54.40;;;;;;5056967;28;20389;-65
2022/11/09 12:42:05;;;;;;;5.78;3.85;;;23.80;54.50;;;;;;5058123;28;20032;-63
2022/11/09 12:44:43;;;;;;;6.20;4.43;;;23.80;54.60;;;;;;5056482;28;20476;-64
2022/11/09 12:47:14;;;;;;;6.13;4.53;;;23.80;54.40;;;;;;5051310;28;20095;-63
2022/11/09 12:49:43;;;;;;;5.40;3.90;;;23.80;54.30;;;;;;5053562;28;20071;-63
2022/11/09 12:52:19;;;;;;;5.30;4.00;;;23.80;54.30;;;;;;5048534;28;20048;-63
2022/11/09 12:54:48;;;;;;;5.38;3.80;;;23.80;54.20;;;;;;5052067;28;20028;-63
2022/11/09 12:57:21;;;;;;;6.27;4.43;;;23.80;54.20;;;;;;5055670;28;20021;-64